Time;durP1;ratioP1;P1;durP2;ratioP2;P2;SDS_P1;SDS_P2;PMS_P1;PMS_P2;Temp;Humidity;BMP_temperature;BMP_pressure;BME280_temperature;BME280_humidity;BME280_pressure;Samples;Min_cycle;Max_cycle;Signal;HPM_P1;HPM_P2
2022/07/20 00:00:42;;;;;;;4.07;3.50;;;;;;;18.15;100.00;67769.41;5093673;28;20187;-60
2022/07/20 00:03:12;;;;;;;3.47;3.37;;;;;;;18.19;100.00;69424.78;5093173;28;20191;-61
2022/07/20 00:05:40;;;;;;;4.00;3.80;;;;;;;18.24;100.00;71083.00;5093493;28;20234;-61
2022/07/20 00:08:07;;;;;;;3.77;3.47;;;;;;;18.31;100.00;73074.19;5093487;28;20176;-61
2022/07/20 00:13:19;;;;;;;4.30;3.27;;;;;;;17.96;100.00;70718.69;5093062;28;20613;-60
2022/07/20 00:15:46;;;;;;;3.70;3.37;;;;;;;17.95;100.00;69066.19;5093327;28;20180;-61
2022/07/20 00:18:15;;;;;;;3.90;3.60;;;;;;;17.75;100.00;69703.06;5093079;28;20184;-61
2022/07/20 00:20:42;;;;;;;5.27;3.80;;;;;;;17.93;100.00;69063.81;5093500;28;20189;-61
2022/07/20 00:23:09;;;;;;;3.50;3.40;;;;;;;17.92;100.00;65104.34;5093308;28;20618;-61
2022/07/20 00:25:36;;;;;;;5.60;5.20;;;;;;;18.02;100.00;63138.31;5093038;28;20215;-61
2022/07/20 00:28:03;;;;;;;4.60;3.87;;;;;;;17.96;100.00;66428.38;5092765;28;20620;-61
2022/07/20 00:30:30;;;;;;;3.93;3.73;;;;;;;17.64;100.00;64415.19;5092712;28;20195;-60
2022/07/20 00:32:57;;;;;;;12.70;4.23;;;;;;;17.61;100.00;64082.44;5093001;28;20195;-61
2022/07/20 00:35:25;;;;;;;4.37;4.17;;;;;;;17.23;100.00;54507.16;5092576;28;20180;-60
2022/07/20 00:37:52;;;;;;;5.27;4.83;;;;;;;17.17;100.00;43686.72;5092916;28;20543;-61
2022/07/20 00:40:19;;;;;;;4.87;4.60;;;;;;;16.99;100.00;44327.19;5091326;28;20185;-60
2022/07/20 00:42:46;;;;;;;5.07;4.60;;;;;;;17.09;100.00;41391.66;5092507;28;20188;-60
2022/07/20 00:45:13;;;;;;;4.33;4.10;;;;;;;17.15;100.00;42049.66;5092410;28;20203;-60
2022/07/20 00:47:40;;;;;;;5.53;4.90;;;;;;;17.06;100.00;40408.88;5092385;28;20184;-60
2022/07/20 00:50:08;;;;;;;5.97;5.37;;;;;;;17.16;100.00;38454.97;5092761;28;20180;-61
2022/07/20 00:52:37;;;;;;;8.13;5.47;;;;;;;17.20;100.00;36824.91;5092585;28;20211;-61
2022/07/20 00:55:05;;;;;;;8.30;7.40;;;;;;;17.30;100.00;34545.72;5092381;28;20550;-60
2022/07/20 00:57:32;;;;;;;6.17;5.67;;;;;;;17.32;100.00;32589.22;5092407;28;20188;-59
2022/07/20 01:00:00;;;;;;;7.23;6.53;;;;;;;17.37;100.00;34876.47;5092129;28;20245;-60
2022/07/20 01:02:30;;;;;;;7.57;6.97;;;;;;;17.43;100.00;33248.22;5092472;28;20207;-60
2022/07/20 01:04:57;;;;;;;8.30;6.83;;;;;;;17.49;100.00;32925.16;5091895;28;20211;-61
2022/07/20 01:07:24;;;;;;;7.87;6.87;;;;;;;17.49;100.00;34883.94;5092043;28;20180;-61
2022/07/20 01:09:52;;;;;;;5.90;5.37;;;;;;;17.61;100.00;37505.00;5092255;28;20595;-60
2022/07/20 01:12:19;;;;;;;6.90;6.47;;;;;;;17.54;100.00;39461.66;5091823;28;20720;-61
2022/07/20 01:14:47;;;;;;;7.17;6.40;;;;;;;17.58;100.00;40445.59;5092249;28;20555;-60
2022/07/20 01:17:14;;;;;;;6.93;6.53;;;;;;;17.51;100.00;36518.16;5092036;28;20184;-60
2022/07/20 01:19:41;;;;;;;6.80;6.00;;;;;;;17.34;100.00;36833.75;5092245;28;20191;-60
2022/07/20 01:22:09;;;;;;;6.90;5.90;;;;;;;17.00;100.00;30289.41;5092182;28;20631;-60
2022/07/20 01:24:36;;;;;;;9.80;5.30;;;;;;;16.97;100.00;29961.72;5091710;28;20188;-60
2022/07/20 01:27:05;;;;;;;6.17;5.33;;;;;;;16.78;100.00;30277.38;5091835;28;20203;-61
2022/07/20 01:29:32;;;;;;;7.83;5.60;;;;;;;16.87;100.00;26701.38;5091863;28;20195;-61
2022/07/20 01:31:59;;;;;;;9.43;6.03;;;;;;;16.95;100.00;24427.59;5091973;28;20192;-60
2022/07/20 01:34:26;;;;;;;12.20;7.73;;;;;;;17.05;100.00;21506.09;5091667;28;20662;-61
2022/07/20 01:36:53;;;;;;;8.87;8.00;;;;;;;17.12;100.00;19234.66;5091726;28;20203;-61
2022/07/20 01:39:21;;;;;;;9.10;7.30;;;;;;;17.17;100.00;19561.31;5092088;28;20187;-61
2022/07/20 01:41:52;;;;;;;7.87;7.10;;;;;;;17.23;100.00;19238.69;5091759;28;20190;-61
2022/07/20 01:44:21;;;;;;;12.33;8.37;;;;;;;17.14;100.00;18910.59;5091958;28;20188;-60
2022/07/20 01:46:48;;;;;;;6.87;6.37;;;;;;;16.95;100.00;18903.72;5091497;28;20203;-60
2022/07/20 01:49:15;;;;;;;9.43;7.03;;;;;;;16.92;100.00;16955.34;5091502;28;20194;-60
2022/07/20 01:51:42;;;;;;;10.67;6.87;;;;;;;16.98;100.00;16957.31;5091560;28;20276;-59
2022/07/20 01:54:09;;;;;;;8.37;7.67;;;;;;;17.01;100.00;17282.84;5091441;28;20202;-60
2022/07/20 01:56:37;;;;;;;10.10;7.40;;;;;;;17.02;100.00;15660.84;5091654;28;20646;-61
2022/07/20 01:59:04;;;;;;;10.40;7.27;;;;;;;17.11;100.00;14041.88;5091442;28;20188;-61
2022/07/20 02:01:31;;;;;;;11.37;7.87;;;;;;;17.15;100.00;13718.75;5090162;28;20286;-61
2022/07/20 02:03:58;;;;;;;8.23;7.53;;;;;;;17.20;100.00;13720.28;5091624;28;20242;-61
2022/07/20 02:06:27;;;;;;;9.93;7.73;;;;;;;17.32;100.00;14696.66;5091458;28;20552;-60
2022/07/20 02:08:54;;;;;;;8.00;7.30;;;;;;;17.26;100.00;15668.28;5092454;28;20184;-61
2022/07/20 02:11:20;;;;;;;7.77;7.00;;;;;;;17.37;100.00;16320.88;5095566;28;20605;-61
2022/07/20 02:13:49;;;;;;;9.13;8.23;;;;;;;17.39;100.00;17295.56;5095304;28;20180;-62
2022/07/20 02:16:15;;;;;;;7.60;7.10;;;;;;;17.02;100.00;14363.72;5095318;28;20176;-61
2022/07/20 02:18:41;;;;;;;8.80;7.57;;;;;;;17.02;100.00;13391.09;5095249;28;20194;-60
2022/07/20 02:21:09;;;;;;;8.10;7.00;;;;;;;17.04;100.00;14039.91;5095578;28;20275;-61
2022/07/20 02:23:36;;;;;;;10.27;6.80;;;;;;;17.05;100.00;14040.19;5095064;28;20184;-61
2022/07/20 02:26:02;;;;;;;7.87;7.17;;;;;;;17.03;100.00;14039.78;5095109;28;20211;-60
2022/07/20 02:28:29;;;;;;;8.63;7.63;;;;;;;17.10;100.00;12744.81;5094989;28;20195;-61
2022/07/20 02:30:57;;;;;;;7.73;7.13;;;;;;;17.11;100.00;12096.84;5095385;28;20656;-61
2022/07/20 02:33:24;;;;;;;8.30;7.57;;;;;;;17.10;100.00;12096.72;5094928;28;20272;-60
2022/07/20 02:35:51;;;;;;;12.13;6.67;;;;;;;17.03;100.00;13715.41;5095422;28;20180;-60
2022/07/20 02:38:18;;;;;;;7.80;7.30;;;;;;;16.83;100.00;12737.88;5094874;28;20258;-60
2022/07/20 02:40:45;;;;;;;8.43;7.93;;;;;;;17.15;100.00;11449.81;5095132;28;20223;-59
2022/07/20 02:43:12;;;;;;;9.60;8.70;;;;;;;17.02;100.00;12742.84;5095118;28;20192;-60
2022/07/20 02:45:39;;;;;;;8.97;8.10;;;;;;;16.96;100.00;11445.16;5094700;28;20204;-61
2022/07/20 02:48:08;;;;;;;9.67;8.90;;;;;;;16.90;100.00;12091.81;5094706;28;20254;-62
2022/07/20 02:50:37;;;;;;;10.33;9.37;;;;;;;16.95;100.00;10473.25;5094973;28;20246;-60
2022/07/20 02:53:05;;;;;;;14.97;10.43;;;;;;;17.02;100.00;9827.13;5094760;28;20195;-61
2022/07/20 02:55:32;;;;;;;18.00;9.93;;;;;;;16.75;100.00;9497.94;5094849;28;20663;-60
2022/07/20 02:57:59;;;;;;;11.70;8.33;;;;;;;16.84;100.00;8205.22;5094818;28;20184;-60
2022/07/20 03:00:29;;;;;;;9.20;8.70;;;;;;;16.90;100.00;8853.69;5094929;28;20230;-61
2022/07/20 03:02:55;;;;;;;9.47;8.97;;;;;;;16.86;100.00;6911.66;5094570;28;20188;-60
2022/07/20 03:05:24;;;;;;;10.63;9.60;;;;;;;16.79;100.00;7233.91;5094774;28;20571;-61
2022/07/20 03:07:51;;;;;;;15.40;9.10;;;;;;;16.97;100.00;7883.94;5094347;28;20183;-60
2022/07/20 03:10:18;;;;;;;12.93;9.43;;;;;;;16.97;100.00;7560.38;5094592;28;20210;-60
2022/07/20 03:12:44;;;;;;;11.53;8.97;;;;;;;17.10;100.00;8210.00;5094066;28;20266;-61
2022/07/20 03:15:12;;;;;;;12.47;9.33;;;;;;;17.10;100.00;9505.13;5094506;28;20649;-60
2022/07/20 03:17:43;;;;;;;11.27;9.50;;;;;;;17.15;100.00;9829.91;5094226;28;20192;-62
2022/07/20 03:20:12;;;;;;;17.57;9.60;;;;;;;17.10;100.00;9181.31;5093576;28;20184;-60
2022/07/20 03:22:41;;;;;;;17.57;10.07;;;;;;;17.22;100.00;9507.63;5094427;28;20184;-60
2022/07/20 03:25:09;;;;;;;18.27;9.07;;;;;;;17.33;100.00;15670.59;5094390;28;20184;-60
2022/07/20 03:27:36;;;;;;;13.53;9.10;;;;;;;18.40;100.00;34613.00;5094295;28;20199;-61
2022/07/20 03:30:04;;;;;;;14.30;8.90;;;;;;;19.12;100.00;67881.56;5094214;28;20271;-61
2022/07/20 03:32:31;;;;;;;14.20;9.23;;;;;;;19.78;100.00;98537.09;5093784;28;20184;-61
2022/07/20 03:34:58;;;;;;;19.00;8.50;;;;;;;20.36;100.00;119414.72;5093693;28;20195;-60
2022/07/20 03:37:25;;;;;;;9.13;7.70;;;;;;;20.19;100.00;151113.13;5094165;28;20642;-61
2022/07/20 03:39:53;;;;;;;12.63;8.70;;;;;;;20.12;100.00;151095.28;5094195;28;20189;-61
2022/07/20 03:42:20;;;;;;;21.30;9.17;;;;;;;20.04;100.00;140581.81;5094059;28;20188;-62
2022/07/20 03:44:47;;;;;;;12.30;8.93;;;;;;;20.08;100.00;151085.09;5093524;28;20184;-61
2022/07/20 03:47:14;;;;;;;11.17;7.97;;;;;;;20.13;100.00;151097.84;5093861;28;20246;-61
2022/07/20 03:49:41;;;;;;;9.80;7.93;;;;;;;20.28;100.00;151134.78;5093631;28;20702;-61
2022/07/20 03:52:08;;;;;;;9.52;7.90;;;;;;;20.64;100.00;151226.50;5094105;28;20187;-61
2022/07/20 03:54:35;;;;;;;8.95;7.88;;;;;;;20.69;100.00;151237.97;5093816;28;20188;-61
2022/07/20 03:57:03;;;;;;;18.67;7.85;;;;;;;20.75;100.00;151254.50;5094075;28;20559;-61
2022/07/20 03:59:30;;;;;;;12.30;7.85;;;;;;;20.82;100.00;151271.09;5093774;28;20191;-61
2022/07/20 04:01:57;;;;;;;11.93;7.88;;;;;;;21.56;100.00;151457.13;5093676;28;20177;-61
2022/07/20 04:04:24;;;;;;;13.00;7.47;;;;;;;21.99;100.00;151565.53;5093580;28;20546;-60
2022/07/20 04:06:51;;;;;;;15.63;6.50;;;;;;;21.97;100.00;151561.75;5093517;28;20227;-61
2022/07/20 04:09:43;;;;;;;11.13;7.10;;;;;;;22.36;100.00;151658.66;5093391;28;20185;-61
2022/07/20 04:12:08;;;;;;;9.65;7.60;;;;;;;22.68;100.00;151740.25;5092732;28;20315;-62
2022/07/20 04:14:35;;;;;;;9.05;6.80;;;;;;;22.60;100.00;151721.13;5093672;28;20184;-60
2022/07/20 04:17:02;;;;;;;7.13;6.55;;;;;;;22.63;100.00;151728.78;5093891;28;20199;-62
2022/07/20 04:19:29;;;;;;;9.38;6.13;;;;;;;22.80;100.00;151770.91;5093844;28;20631;-62
2022/07/20 04:21:57;;;;;;;12.40;6.07;;;;;;;22.83;100.00;151778.53;5093009;28;20223;-61
2022/07/20 04:24:24;;;;;;;7.15;6.20;;;;;;;22.94;100.00;151806.63;5093446;28;20540;-61
2022/07/20 04:26:51;;;;;;;9.18;5.90;;;;;;;22.87;100.00;151788.78;5092709;28;20310;-61
2022/07/20 04:29:20;;;;;;;14.95;6.68;;;;;;;22.83;100.00;151778.53;5093214;28;20184;-61
2022/07/20 04:31:47;;;;;;;18.00;6.22;;;;;;;22.64;100.00;151731.34;5092922;28;20557;-62
2022/07/20 04:34:14;;;;;;;11.75;5.65;;;;;;;22.86;100.00;151784.94;5092822;28;20195;-61
2022/07/20 04:36:41;;;;;;;9.20;5.85;;;;;;;22.90;100.00;151795.16;5092545;28;20188;-61
2022/07/20 04:39:08;;;;;;;14.70;6.93;;;;;;;23.14;100.00;151857.66;5092790;28;20180;-62
2022/07/20 04:41:35;;;;;;;11.00;5.88;;;;;;;23.32;100.00;151901.03;5092701;28;20291;-61
2022/07/20 04:44:02;;;;;;;17.83;6.60;;;;;;;23.47;100.00;151940.63;5092841;28;20559;-61
2022/07/20 04:46:30;;;;;;;15.70;6.57;;;;;;;23.75;100.00;152009.56;5091681;28;20670;-61
2022/07/20 04:48:57;;;;;;;12.02;6.13;;;;;;;23.96;100.00;152064.47;5092897;28;20215;-61
2022/07/20 04:51:24;;;;;;;8.35;5.78;;;;;;;24.09;100.00;152097.66;5092831;28;20245;-61
2022/07/20 04:53:52;;;;;;;10.82;5.97;;;;;;;24.18;100.00;152118.13;5092407;28;20207;-61
2022/07/20 04:56:19;;;;;;;7.88;6.10;;;;;;;24.06;100.00;152089.97;5092712;28;20239;-61
2022/07/20 04:58:50;;;;;;;6.60;6.00;;;;;;;24.24;100.00;152134.72;5092657;28;20687;-61
2022/07/20 05:01:17;;;;;;;7.40;5.90;;;;;;;24.34;100.00;152158.97;5092681;28;20230;-61
2022/07/20 05:03:45;;;;;;;8.48;5.05;;;;;;;24.35;100.00;152161.53;5092139;28;20186;-61
2022/07/20 05:06:12;;;;;;;5.22;4.78;;;;;;;24.43;100.00;152181.97;5092207;28;20211;-60
2022/07/20 05:08:46;;;;;;;10.80;4.70;;;;;;;24.49;100.00;152198.56;5092844;28;20188;-61
2022/07/20 05:11:14;;;;;;;4.50;4.20;;;;;;;24.65;100.00;152238.16;5092576;28;20233;-61
2022/07/20 05:13:41;;;;;;;8.55;4.30;;;;;;;24.75;100.00;152262.41;5092591;28;20187;-61
2022/07/20 05:16:09;;;;;;;8.93;4.15;;;;;;;24.93;100.00;152309.72;5092400;28;20538;-61
2022/07/20 05:18:36;;;;;;;6.40;4.72;;;;;;;25.07;100.00;152344.22;5092097;28;20195;-61
2022/07/20 05:21:05;;;;;;;7.03;4.70;;;;;;;25.21;100.00;152379.97;5091134;28;20633;-61
2022/07/20 05:23:32;;;;;;;5.88;4.53;;;;;;;25.31;100.00;152405.53;5088487;28;20195;-62
2022/07/20 05:25:59;;;;;;;5.60;4.13;;;;;;;25.21;100.00;152378.69;5077128;28;20261;-61
2022/07/20 05:28:26;;;;;;;6.35;3.67;;;;;;;25.29;100.00;152399.19;5091916;28;20633;-61
2022/07/20 05:30:53;;;;;;;6.90;4.20;;;;;;;25.32;100.00;152408.13;5092489;28;20634;-62
2022/07/20 05:33:20;;;;;;;5.88;4.32;;;;;;;25.30;100.00;152401.69;5090399;28;20196;-61
2022/07/20 05:35:49;;;;;;;5.38;4.97;;;;;;;25.27;100.00;152394.03;5091902;28;20190;-61
2022/07/20 05:38:18;;;;;;;4.93;4.50;;;;;;;25.18;100.00;152371.03;5092296;28;20215;-60
2022/07/20 05:40:45;;;;;;;6.82;4.90;;;;;;;25.10;100.00;152350.59;5091823;28;20184;-61
2022/07/20 05:43:12;;;;;;;5.05;4.63;;;;;;;25.11;100.00;152354.44;5091596;28;20203;-61
2022/07/20 05:45:39;;;;;;;7.32;4.43;;;;;;;25.32;100.00;152408.13;5090258;28;20245;-61
2022/07/20 05:48:10;;;;;;;6.30;4.40;;;;;;;25.47;100.00;152446.41;5092124;28;20180;-62
2022/07/20 05:50:42;;;;;;;7.20;3.45;;;;;;;25.73;100.00;152510.38;5091792;28;20227;-61
2022/07/20 05:53:10;;;;;;;3.78;3.58;;;;;;;25.86;100.00;152544.88;5082679;28;20601;-62
2022/07/20 05:55:39;;;;;;;5.90;4.20;;;;;;;26.07;100.00;152596.00;5082186;28;20209;-61
2022/07/20 05:58:07;;;;;;;9.27;4.13;;;;;;;26.50;100.00;152706.00;5091259;28;20234;-62
2022/07/20 06:00:36;;;;;;;14.07;4.30;;;;;;;26.98;100.00;152826.28;5089632;28;20275;-61
2022/07/20 06:03:04;;;;;;;7.93;5.60;;;;;;;27.23;100.00;152890.25;5091476;28;20191;-61
2022/07/20 06:05:31;;;;;;;94.07;73.00;;;;;;;27.28;100.00;152904.28;5092434;28;20578;-62
2022/07/20 06:08:00;;;;;;;5.57;4.60;;;;;;;27.31;100.00;152910.69;5091600;28;20211;-61
2022/07/20 06:10:27;;;;;;;8.02;4.40;;;;;;;27.65;100.00;152996.47;5091871;28;20702;-61
2022/07/20 06:12:56;;;;;;;6.28;4.05;;;;;;;28.36;100.00;153176.97;5091687;28;20234;-61
2022/07/20 06:15:24;;;;;;;9.18;3.75;;;;;;;28.84;94.98;153298.69;5092065;28;20191;-61
2022/07/20 06:17:52;;;;;;;4.05;3.60;;;;;;;28.87;96.13;153306.34;5080613;28;20203;-62
2022/07/20 06:20:19;;;;;;;3.92;3.50;;;;;;;29.34;91.92;153425.50;5087045;28;20196;-61
2022/07/20 06:22:46;;;;;;;4.57;4.18;;;;;;;29.47;91.26;153457.53;5091459;28;20277;-62
2022/07/20 06:25:15;;;;;;;4.65;4.25;;;;;;;30.20;86.90;153643.38;5091683;28;20200;-59
2022/07/20 06:27:43;;;;;;;5.35;2.90;;;;;;;30.44;79.68;153702.31;5084989;28;20295;-63
2022/07/20 06:30:13;;;;;;;5.35;3.30;;;;;;;30.28;78.48;153662.59;5074233;28;20196;-63
2022/07/20 06:32:40;;;;;;;7.00;4.10;;;;;;;30.79;77.31;153793.41;5072492;28;20546;-64
2022/07/20 06:35:07;;;;;;;5.93;3.63;;;;;;;30.87;71.72;153812.63;5085039;28;20673;-63
2022/07/20 06:37:34;;;;;;;6.95;3.63;;;;;;;30.71;76.92;153771.59;5080770;28;20208;-65
2022/07/20 06:40:01;;;;;;;9.10;3.22;;;;;;;30.37;70.95;153686.97;5072707;28;20185;-63
2022/07/20 06:42:29;;;;;;;6.20;2.72;;;;;;;30.37;68.39;153686.97;5087612;28;20235;-61
2022/07/20 06:44:56;;;;;;;8.38;2.60;;;;;;;30.55;65.86;153730.59;5091031;28;20185;-60
2022/07/20 06:47:24;;;;;;;7.50;2.35;;;;;;;31.32;63.31;153926.78;5089283;28;20216;-61
2022/07/20 06:50:04;;;;;;;5.93;3.97;;;;;;;31.84;65.08;154058.94;5091803;28;20631;-61
2022/07/20 06:52:35;;;;;;;4.45;2.08;;;;;;;32.07;55.52;154118.00;5091084;28;20190;-61
2022/07/20 06:55:02;;;;;;;12.25;3.65;;;;;;;32.26;53.83;154164.19;5086491;28;20226;-62
2022/07/20 06:57:29;;;;;;;6.55;3.58;;;;;;;32.27;53.38;154166.78;5075706;28;20275;-62
2022/07/20 06:59:55;;;;;;;4.13;2.00;;;;;;;31.69;54.73;154020.50;5083928;28;20271;-62
2022/07/20 07:02:24;;;;;;;3.83;3.33;;;;;;;31.16;56.87;153887.03;5090171;28;20257;-61
2022/07/20 07:04:51;;;;;;;9.30;2.72;;;;;;;30.86;59.60;153810.06;5094312;28;20208;-61
2022/07/20 07:07:18;;;;;;;3.65;3.35;;;;;;;30.52;59.76;153722.88;5093122;28;20204;-61
2022/07/20 07:09:44;;;;;;;11.80;3.35;;;;;;;30.28;62.91;153663.88;5092279;28;20208;-61
2022/07/20 07:12:11;;;;;;;7.55;2.78;;;;;;;30.28;65.18;153663.88;5092558;28;20232;-63
2022/07/20 07:14:40;;;;;;;11.70;2.92;;;;;;;31.24;59.47;153907.56;5083033;28;20208;-63
2022/07/20 07:17:07;;;;;;;8.45;2.42;;;;;;;30.56;57.98;153733.13;5080158;28;20184;-62
2022/07/20 07:19:35;;;;;;;3.92;2.10;;;;;;;30.53;56.75;153726.72;5090075;28;20202;-61
2022/07/20 07:22:02;;;;;;;9.98;2.60;;;;;;;29.83;59.42;153548.50;5075287;28;20262;-61
2022/07/20 07:24:31;;;;;;;2.70;1.90;;;;;;;29.71;61.76;153517.72;5081068;28;20201;-62
2022/07/20 07:26:58;;;;;;;3.53;1.92;;;;;;;29.39;57.80;153438.31;5081635;28;20589;-61
2022/07/20 07:29:26;;;;;;;7.55;2.60;;;;;;;29.34;58.09;153424.22;5094198;28;20206;-62
2022/07/20 07:31:53;;;;;;;5.70;2.50;;;;;;;29.31;56.68;153416.56;5091419;28;20800;-61
2022/07/20 07:34:22;;;;;;;2.72;2.53;;;;;;;28.95;54.38;153326.81;5073144;28;20201;-61
2022/07/20 07:36:52;;;;;;;2.60;1.88;;;;;;;29.02;52.85;153343.50;5074013;28;20268;-61
2022/07/20 07:39:19;;;;;;;2.13;1.70;;;;;;;29.13;52.20;153370.38;5073809;28;20618;-62
2022/07/20 07:41:46;;;;;;;3.28;1.58;;;;;;;29.14;52.95;153372.94;5073764;28;20200;-62
2022/07/20 07:44:13;;;;;;;3.92;1.65;;;;;;;28.96;52.71;153328.13;5079728;28;20199;-63
2022/07/20 07:46:40;;;;;;;2.38;1.42;;;;;;;28.97;53.67;153330.69;5083311;28;20665;-62
2022/07/20 07:49:08;;;;;;;2.65;1.83;;;;;;;28.65;55.89;153248.66;5073595;28;20623;-61
2022/07/20 07:51:36;;;;;;;2.30;1.67;;;;;;;28.97;55.09;153330.69;5084481;28;20195;-61
2022/07/20 07:54:05;;;;;;;1.60;1.30;;;;;;;28.91;54.30;153316.59;5084260;28;20196;-61
2022/07/20 07:56:33;;;;;;;2.95;1.25;;;;;;;28.97;56.62;153330.69;5078321;28;20207;-61
2022/07/20 07:59:00;;;;;;;4.82;1.40;;;;;;;29.04;55.74;153349.88;5092887;28;20203;-62
2022/07/20 08:01:27;;;;;;;1.38;1.27;;;;;;;28.98;56.44;153333.25;5093218;28;20188;-61
2022/07/20 08:03:54;;;;;;;8.65;1.80;;;;;;;29.03;57.15;153347.31;5093240;28;20180;-61
2022/07/20 08:06:22;;;;;;;2.03;1.90;;;;;;;29.34;59.34;153425.50;5092837;28;20511;-61
2022/07/20 08:08:49;;;;;;;2.47;2.03;;;;;;;29.90;54.95;153566.50;5093723;28;20744;-61
2022/07/20 08:11:17;;;;;;;2.47;2.30;;;;;;;30.30;54.19;153667.69;5093219;28;20394;-61
2022/07/20 08:13:44;;;;;;;3.13;1.60;;;;;;;30.44;52.95;153703.66;5093024;28;20188;-62
2022/07/20 08:16:11;;;;;;;37.58;33.88;;;;;;;30.92;51.19;153825.47;5077967;28;20197;-63
2022/07/20 08:18:38;;;;;;;2.85;1.48;;;;;;;30.51;52.37;153720.34;5089285;28;20196;-61
2022/07/20 08:21:06;;;;;;;6.63;2.05;;;;;;;30.55;54.15;153731.88;5093312;28;20180;-61
2022/07/20 08:23:33;;;;;;;2.75;1.83;;;;;;;30.37;52.75;153685.69;5093878;28;20195;-60
2022/07/20 08:26:00;;;;;;;1.27;1.27;;;;;;;30.17;53.56;153634.41;5093563;28;20184;-61
2022/07/20 08:28:30;;;;;;;9.70;2.03;;;;;;;29.93;55.35;153575.44;5093652;28;20677;-61
2022/07/20 08:31:00;;;;;;;2.63;1.40;;;;;;;30.09;55.35;153615.16;5090320;28;20207;-61
2022/07/20 08:33:27;;;;;;;2.28;1.70;;;;;;;29.68;57.44;153510.06;5093203;28;20184;-61
2022/07/20 08:35:54;;;;;;;3.38;1.60;;;;;;;29.46;58.47;153456.25;5093144;28;20245;-62
2022/07/20 08:38:21;;;;;;;2.42;1.23;;;;;;;29.48;56.98;153461.41;5093016;28;20535;-61
2022/07/20 08:40:48;;;;;;;1.75;1.63;;;;;;;29.30;57.84;153413.97;5092895;28;20192;-61
2022/07/20 08:43:16;;;;;;;3.15;1.88;;;;;;;29.50;58.82;153465.22;5092737;28;20194;-61
2022/07/20 08:45:46;;;;;;;4.70;1.80;;;;;;;29.59;60.22;153488.28;5092931;28;20536;-61
2022/07/20 08:48:18;;;;;;;2.75;1.40;;;;;;;29.42;58.80;153444.72;5092200;28;20215;-61
2022/07/20 08:50:46;;;;;;;3.38;1.45;;;;;;;29.45;57.35;153453.69;5090016;28;20635;-62
2022/07/20 08:53:15;;;;;;;3.80;2.00;;;;;;;29.62;57.83;153494.72;5093042;28;20271;-61
2022/07/20 08:55:42;;;;;;;1.40;1.30;;;;;;;29.76;56.28;153531.84;5092760;28;20175;-62
2022/07/20 08:58:10;;;;;;;2.00;1.42;;;;;;;29.75;54.70;153527.97;5092842;28;20180;-62
2022/07/20 09:00:38;;;;;;;3.10;1.45;;;;;;;29.58;56.51;153484.47;5093089;28;20238;-62
2022/07/20 09:03:08;;;;;;;1.70;1.60;;;;;;;29.70;57.11;153516.50;5092681;28;20503;-61
2022/07/20 09:05:37;;;;;;;8.38;2.47;;;;;;;29.89;58.60;153563.91;5084890;28;20193;-62
2022/07/20 09:08:07;;;;;;;5.53;2.13;;;;;;;29.96;59.71;153580.59;5082239;28;20238;-62
2022/07/20 09:10:36;;;;;;;2.28;2.08;;;;;;;29.28;62.51;153410.06;5072922;28;20658;-61
2022/07/20 09:13:05;;;;;;;1.67;1.58;;;;;;;29.41;61.47;153442.13;5032283;28;20209;-61
2022/07/20 09:15:36;;;;;;;2.60;1.10;;;;;;;29.41;62.63;153443.44;5032843;28;20530;-61
2022/07/20 09:18:10;;;;;;;1.40;1.35;;;;;;;29.13;62.58;153371.66;5048235;28;20208;-61
2022/07/20 09:20:39;;;;;;;1.67;1.50;;;;;;;28.52;69.54;153217.94;5048217;28;20197;-61
2022/07/20 09:23:08;;;;;;;6.72;1.88;;;;;;;28.70;68.70;153262.81;5038984;28;20317;-64
2022/07/20 09:25:36;;;;;;;3.78;1.40;;;;;;;28.89;66.48;153311.50;5048618;28;20200;-62
2022/07/20 09:28:04;;;;;;;3.30;2.03;;;;;;;29.02;68.45;153344.78;5042411;28;20209;-62
2022/07/20 09:30:31;;;;;;;2.47;1.73;;;;;;;29.36;66.09;153430.66;5045636;28;20198;-61
2022/07/20 09:33:01;;;;;;;2.30;1.40;;;;;;;29.70;63.72;153515.19;5048217;28;20216;-61
2022/07/20 09:35:35;;;;;;;4.43;1.75;;;;;;;30.05;61.83;153604.91;5050101;28;20548;-61
2022/07/20 09:38:04;;;;;;;7.20;1.77;;;;;;;30.35;61.87;153680.53;5049512;28;20185;-61
2022/07/20 09:40:42;;;;;;;1.65;1.55;;;;;;;29.94;62.39;153576.75;5034204;28;20205;-61
2022/07/20 09:43:09;;;;;;;2.88;1.42;;;;;;;29.86;65.93;153557.47;5029461;28;20381;-62
2022/07/20 09:45:36;;;;;;;1.30;1.25;;;;;;;29.71;65.24;153519.00;5029941;28;20680;-61
2022/07/20 09:48:10;;;;;;;1.63;1.52;;;;;;;29.92;63.25;153572.88;5030885;28;20224;-62
2022/07/20 09:50:40;;;;;;;1.63;1.55;;;;;;;29.82;58.54;153545.94;5031141;28;20221;-62
2022/07/20 09:53:09;;;;;;;2.95;1.58;;;;;;;29.12;63.71;153367.81;5031052;28;20233;-61
2022/07/20 09:55:37;;;;;;;1.50;1.40;;;;;;;29.28;61.69;153410.06;5031633;28;20620;-64
2022/07/20 09:58:04;;;;;;;2.00;1.30;;;;;;;29.47;62.05;153458.81;5032642;28;20187;-62
2022/07/20 10:00:33;;;;;;;1.70;1.60;;;;;;;29.62;57.80;153494.72;5036464;28;20204;-61
2022/07/20 10:03:01;;;;;;;1.52;1.20;;;;;;;29.67;57.14;153508.75;5038846;28;20211;-62
2022/07/20 10:05:31;;;;;;;1.48;1.38;;;;;;;29.72;56.79;153521.59;5042361;28;20233;-61
2022/07/20 10:08:03;;;;;;;3.28;1.55;;;;;;;29.61;56.58;153492.13;5031700;28;20235;-61
2022/07/20 10:10:30;;;;;;;2.47;1.40;;;;;;;29.71;53.51;153519.00;5051146;28;20585;-62
2022/07/20 10:12:58;;;;;;;1.70;1.40;;;;;;;29.44;55.73;153449.88;5089653;28;20275;-61
2022/07/20 10:15:33;;;;;;;2.33;1.38;;;;;;;29.41;56.06;153443.44;5091069;28;20180;-61
2022/07/20 10:18:01;;;;;;;1.38;1.35;;;;;;;29.49;55.44;153462.69;5091677;28;20609;-62
2022/07/20 10:20:33;;;;;;;1.85;1.30;;;;;;;28.91;58.24;153315.31;5091529;28;20180;-62
2022/07/20 10:23:33;;;;;;;1.00;0.90;;;;;;;29.29;56.41;153411.41;5084596;28;20381;-61
2022/07/20 10:26:00;;;;;;;3.72;1.48;;;;;;;29.42;59.66;153444.72;5103358;28;20215;-61
2022/07/20 10:28:36;;;;;;;1.10;1.10;;;;;;;29.14;60.03;153372.94;5071508;28;20557;-61
2022/07/20 10:31:16;;;;;;;1.13;1.10;;;;;;;29.43;58.50;153448.56;5078334;28;20290;-61
2022/07/20 10:33:44;;;;;;;6.97;1.70;;;;;;;29.64;59.42;153501.09;5075255;28;20195;-61
2022/07/20 10:39:33;;;;;;;3.78;1.30;;;;;;;29.59;54.25;153487.00;5075471;28;20176;-61
2022/07/20 10:42:25;;;;;;;1.48;1.20;;;;;;;29.15;56.36;153376.81;5074647;28;20188;-61
2022/07/20 10:44:52;;;;;;;3.65;1.55;;;;;;;29.11;55.93;153366.50;5074323;28;20204;-61
2022/07/20 10:47:42;;;;;;;2.97;1.92;;;;;;;29.11;59.06;153365.28;5073174;28;20276;-61
2022/07/20 10:50:11;;;;;;;1.33;1.30;;;;;;;29.35;57.79;153426.78;5086259;28;20200;-61
2022/07/20 10:52:38;;;;;;;4.60;1.30;;;;;;;29.07;57.50;153355.03;5085103;28;20421;-61
2022/07/20 10:55:06;;;;;;;1.33;1.25;;;;;;;28.89;56.29;153311.50;5092174;28;20200;-60
2022/07/20 10:57:36;;;;;;;1.75;1.20;;;;;;;28.64;56.77;153247.41;5094298;28;20176;-61
2022/07/20 11:00:14;;;;;;;1.73;1.27;;;;;;;28.42;57.71;153191.06;5094519;28;20214;-61
2022/07/20 11:02:43;;;;;;;3.67;1.40;;;;;;;28.34;60.87;153171.88;5095112;28;20599;-60
2022/07/20 11:05:22;;;;;;;2.55;1.48;;;;;;;28.34;59.17;153171.88;5094898;28;20188;-61
2022/07/20 11:07:49;;;;;;;4.45;1.58;;;;;;;28.46;59.61;153202.59;5094816;28;20314;-62
2022/07/20 11:10:25;;;;;;;2.45;1.10;;;;;;;28.44;56.70;153197.47;5078476;28;20212;-61
2022/07/20 11:13:00;;;;;;;1.35;1.35;;;;;;;28.20;57.69;153134.75;5083219;28;20231;-61
2022/07/20 11:15:39;;;;;;;2.85;1.50;;;;;;;28.26;58.67;153150.13;5081660;28;20196;-60
2022/07/20 11:18:07;;;;;;;2.15;1.58;;;;;;;28.02;57.46;153089.88;5090288;28;20200;-61
2022/07/20 11:20:34;;;;;;;5.88;1.63;;;;;;;28.12;57.54;153115.56;5094319;28;20187;-61
2022/07/20 11:23:02;;;;;;;3.83;1.73;;;;;;;28.07;57.99;153102.69;5094365;28;20180;-60
2022/07/20 11:25:46;;;;;;;1.95;1.30;;;;;;;27.92;57.96;153064.31;5092867;28;20294;-61
2022/07/20 11:28:16;;;;;;;1.50;1.40;;;;;;;27.78;59.40;153028.47;5074873;28;20204;-61
2022/07/20 11:30:43;;;;;;;1.50;1.30;;;;;;;27.76;62.88;153023.31;5072964;28;20200;-61
2022/07/20 11:33:11;;;;;;;1.27;1.27;;;;;;;27.72;61.80;153014.38;5074055;28;20647;-62